Time;durP1;ratioP1;P1;durP2;ratioP2;P2;SDS_P1;SDS_P2;PMS_P1;PMS_P2;Temp;Humidity;BMP_temperature;BMP_pressure;BME280_temperature;BME280_humidity;BME280_pressure;Samples;Min_cycle;Max_cycle;Signal;HPM_P1;HPM_P2
2023/03/24 00:00:27;;;;;;;11.73;5.60;;;12.20;99.90;;;;;;5016930;28;20045;-89
2023/03/24 00:02:52;;;;;;;9.95;6.03;;;12.20;99.90;;;;;;5031920;28;20322;-90
2023/03/24 00:05:21;;;;;;;9.88;5.78;;;12.20;99.90;;;;;;5004024;28;20620;-89
2023/03/24 00:07:48;;;;;;;12.02;5.57;;;12.20;99.90;;;;;;5007165;28;20514;-89
2023/03/24 00:10:16;;;;;;;9.88;5.63;;;12.20;99.90;;;;;;5005966;28;20044;-89
2023/03/24 00:12:44;;;;;;;9.40;6.07;;;12.30;99.90;;;;;;5022398;28;20049;-89
2023/03/24 00:15:12;;;;;;;11.60;6.30;;;12.10;99.90;;;;;;5006575;28;20044;-89
2023/03/24 00:17:38;;;;;;;11.38;5.82;;;12.30;99.90;;;;;;5020224;28;20513;-89
2023/03/24 00:20:12;;;;;;;12.50;5.93;;;12.20;99.90;;;;;;5017099;28;20038;-89
2023/03/24 00:22:48;;;;;;;12.55;6.10;;;12.30;99.90;;;;;;5020747;28;20045;-90
2023/03/24 00:25:22;;;;;;;10.60;6.55;;;12.20;99.90;;;;;;5022205;28;20034;-89
2023/03/24 00:27:47;;;;;;;11.32;5.88;;;12.20;99.90;;;;;;5019115;28;20203;-89
2023/03/24 00:30:14;;;;;;;10.27;5.40;;;12.30;99.90;;;;;;5028588;28;20270;-89
2023/03/24 00:32:45;;;;;;;11.55;5.90;;;12.30;99.90;;;;;;5000636;28;20565;-89
2023/03/24 00:35:12;;;;;;;8.20;5.43;;;12.10;99.90;;;;;;5002989;28;20128;-88
2023/03/24 00:37:40;;;;;;;12.85;6.05;;;12.20;99.90;;;;;;5004544;28;20081;-89
2023/03/24 00:40:12;;;;;;;13.27;5.72;;;12.30;99.90;;;;;;5018796;28;20055;-89
2023/03/24 00:42:40;;;;;;;11.38;5.95;;;12.20;99.90;;;;;;5008655;28;20045;-89
2023/03/24 00:45:08;;;;;;;10.57;5.95;;;12.30;99.90;;;;;;5018195;28;20041;-89
2023/03/24 00:47:36;;;;;;;9.38;5.80;;;12.20;99.90;;;;;;5003398;28;20037;-89
2023/03/24 00:50:09;;;;;;;10.63;6.18;;;12.20;99.90;;;;;;5026105;28;20077;-89
2023/03/24 00:52:35;;;;;;;10.85;5.68;;;12.10;99.90;;;;;;5004952;28;20105;-89
2023/03/24 00:55:04;;;;;;;12.38;5.85;;;12.20;99.90;;;;;;5003283;28;20105;-88
2023/03/24 00:57:33;;;;;;;9.73;5.72;;;12.20;99.90;;;;;;5018992;28;20038;-89
2023/03/24 01:00:06;;;;;;;9.48;5.05;;;12.10;99.90;;;;;;5035114;28;20451;-89
2023/03/24 01:02:34;;;;;;;10.43;5.28;;;12.20;99.90;;;;;;5023377;28;20573;-89
2023/03/24 01:05:01;;;;;;;9.52;5.75;;;12.30;99.90;;;;;;5002834;28;20034;-89
2023/03/24 01:07:29;;;;;;;9.85;5.93;;;12.20;99.90;;;;;;5020039;28;20585;-90
2023/03/24 01:09:56;;;;;;;9.52;5.50;;;12.30;99.90;;;;;;5005180;28;20041;-90
2023/03/24 01:12:27;;;;;;;8.75;5.13;;;12.30;99.90;;;;;;5007426;28;22049;-89
2023/03/24 01:14:58;;;;;;;8.10;5.47;;;12.20;99.90;;;;;;5003319;28;21022;-90
2023/03/24 01:17:24;;;;;;;8.88;5.43;;;12.30;99.90;;;;;;5000516;28;20323;-89
2023/03/24 01:19:53;;;;;;;10.25;5.60;;;12.30;99.90;;;;;;5014885;28;20034;-89
2023/03/24 01:22:20;;;;;;;11.18;5.93;;;12.30;99.90;;;;;;5021006;28;20107;-90
2023/03/24 01:24:48;;;;;;;9.93;5.65;;;12.30;99.90;;;;;;5003576;28;20037;-89
2023/03/24 01:27:15;;;;;;;10.00;5.25;;;12.20;99.90;;;;;;5022262;28;20043;-89
2023/03/24 01:29:48;;;;;;;7.55;5.20;;;12.30;99.90;;;;;;5003998;28;20041;-89
2023/03/24 01:32:13;;;;;;;11.70;5.40;;;12.30;99.90;;;;;;5001055;28;20136;-89
2023/03/24 01:34:39;;;;;;;8.05;5.35;;;12.30;99.90;;;;;;5002560;28;20207;-89
2023/03/24 01:37:13;;;;;;;11.30;5.82;;;12.30;99.90;;;;;;5002455;28;20049;-90
2023/03/24 01:39:39;;;;;;;9.70;5.73;;;12.40;99.90;;;;;;5001742;28;20174;-89
2023/03/24 01:42:05;;;;;;;10.90;5.68;;;12.30;99.90;;;;;;5002654;28;20790;-89
2023/03/24 01:44:37;;;;;;;10.68;5.53;;;12.40;99.90;;;;;;5017380;28;20041;-89
2023/03/24 01:47:07;;;;;;;7.93;5.40;;;12.40;99.90;;;;;;4997378;28;20521;-89
2023/03/24 01:49:43;;;;;;;8.25;5.22;;;12.40;99.90;;;;;;4990029;28;20049;-89
2023/03/24 01:52:24;;;;;;;8.77;5.72;;;12.30;99.90;;;;;;5015759;28;20633;-89
2023/03/24 01:54:57;;;;;;;9.35;5.53;;;12.40;99.90;;;;;;5023674;28;20121;-89
2023/03/24 01:57:31;;;;;;;9.25;5.72;;;12.30;99.90;;;;;;5002145;28;20048;-90
2023/03/24 02:00:04;;;;;;;6.88;4.70;;;12.40;99.90;;;;;;5019698;28;20041;-89
2023/03/24 02:02:34;;;;;;;7.93;5.03;;;12.40;99.90;;;;;;5002873;28;20421;-89
2023/03/24 02:05:07;;;;;;;10.88;4.97;;;12.40;99.90;;;;;;5000768;28;20402;-90
2023/03/24 02:07:42;;;;;;;8.27;5.05;;;12.40;99.90;;;;;;5002510;28;20038;-89
2023/03/24 02:10:15;;;;;;;7.45;4.55;;;12.40;99.90;;;;;;5001805;28;20059;-89
2023/03/24 02:12:42;;;;;;;8.43;5.00;;;12.40;99.90;;;;;;5024994;28;20033;-90
2023/03/24 02:15:09;;;;;;;8.25;5.05;;;12.50;99.90;;;;;;5026598;28;20068;-89
2023/03/24 02:18:04;;;;;;;9.02;4.68;;;12.50;99.90;;;;;;5001782;28;20269;-89
2023/03/24 02:20:33;;;;;;;7.90;4.80;;;12.50;99.90;;;;;;5000389;28;20073;-90
2023/03/24 02:23:05;;;;;;;8.18;5.22;;;12.50;99.90;;;;;;5018349;28;20436;-90
2023/03/24 02:25:59;;;;;;;7.20;5.00;;;12.60;99.90;;;;;;5001667;28;20546;-89
2023/03/24 02:28:52;;;;;;;6.22;4.53;;;12.50;99.90;;;;;;5003872;28;20037;-89
2023/03/24 02:31:36;;;;;;;8.27;5.03;;;12.60;99.90;;;;;;5017401;28;20044;-90
2023/03/24 02:34:31;;;;;;;6.75;5.03;;;12.60;99.90;;;;;;4999262;28;20135;-89
2023/03/24 02:37:05;;;;;;;11.43;5.43;;;12.50;99.90;;;;;;5000386;28;20057;-89
2023/03/24 02:39:42;;;;;;;7.90;5.18;;;12.60;99.90;;;;;;5006063;28;20069;-90
2023/03/24 02:42:35;;;;;;;8.73;5.30;;;12.60;99.90;;;;;;5000593;28;20029;-90
2023/03/24 02:46:05;;;;;;;7.82;5.38;;;12.60;99.90;;;;;;5039475;28;20041;-89
2023/03/24 02:48:46;;;;;;;10.10;5.60;;;12.60;99.90;;;;;;4922050;28;20069;-89
2023/03/24 02:51:45;;;;;;;7.60;5.38;;;12.60;99.90;;;;;;4925183;28;20118;-89
2023/03/24 02:54:21;;;;;;;7.82;4.88;;;12.60;99.90;;;;;;5015247;28;20398;-90
2023/03/24 02:57:03;;;;;;;9.27;5.50;;;12.60;99.90;;;;;;5000256;28;20268;-89
2023/03/24 02:59:41;;;;;;;7.95;5.47;;;12.60;99.90;;;;;;5020349;28;20037;-90
2023/03/24 03:02:13;;;;;;;8.68;5.65;;;12.60;99.90;;;;;;5017865;28;20047;-90
2023/03/24 03:04:56;;;;;;;7.70;5.68;;;12.60;99.90;;;;;;5013022;28;20050;-90
2023/03/24 03:07:32;;;;;;;8.35;5.18;;;12.60;99.90;;;;;;5017074;28;20120;-90
2023/03/24 03:10:18;;;;;;;7.55;5.30;;;12.70;99.90;;;;;;5021337;28;20046;-90
2023/03/24 03:12:47;;;;;;;7.75;4.93;;;12.70;99.90;;;;;;5028211;28;20088;-89
2023/03/24 03:15:20;;;;;;;9.05;5.07;;;12.70;99.90;;;;;;5017368;28;20037;-89
2023/03/24 03:18:24;;;;;;;8.68;4.75;;;12.70;99.90;;;;;;5017445;28;20099;-89
2023/03/24 03:20:58;;;;;;;8.10;5.28;;;12.80;99.90;;;;;;5015155;28;20049;-90
2023/03/24 03:23:39;;;;;;;8.93;4.95;;;12.70;99.90;;;;;;5025034;28;20117;-89
2023/03/24 03:26:18;;;;;;;9.57;5.13;;;12.80;99.90;;;;;;4998928;28;20039;-90
2023/03/24 03:28:56;;;;;;;7.65;5.30;;;12.70;99.90;;;;;;5006643;28;20083;-89
2023/03/24 03:31:28;;;;;;;8.38;5.30;;;12.70;99.90;;;;;;5004511;28;20073;-89
2023/03/24 03:34:11;;;;;;;7.43;5.10;;;12.80;99.90;;;;;;5002974;28;20046;-89
2023/03/24 03:37:09;;;;;;;8.57;4.97;;;12.90;99.90;;;;;;5016913;28;20534;-89
2023/03/24 03:39:51;;;;;;;8.32;5.25;;;12.90;99.90;;;;;;4996024;28;20403;-90
2023/03/24 03:42:17;;;;;;;7.72;4.90;;;12.90;99.90;;;;;;5007213;28;20092;-89
2023/03/24 03:44:46;;;;;;;4.30;2.92;;;12.80;99.90;;;;;;5021668;28;20045;-90
2023/03/24 03:47:13;;;;;;;4.72;2.97;;;12.50;99.90;;;;;;5019878;28;20053;-89
2023/03/24 03:49:39;;;;;;;6.05;2.90;;;12.40;99.90;;;;;;5030409;28;20411;-89
2023/03/24 03:52:06;;;;;;;5.00;2.92;;;12.30;99.90;;;;;;5004100;28;20037;-89
2023/03/24 03:54:33;;;;;;;5.63;3.08;;;12.20;99.90;;;;;;5006001;28;20056;-89
2023/03/24 03:56:59;;;;;;;5.18;2.88;;;12.10;99.90;;;;;;5003995;28;20455;-88
2023/03/24 03:59:29;;;;;;;6.13;2.75;;;11.90;99.90;;;;;;5003019;28;20025;-89
2023/03/24 04:01:56;;;;;;;5.93;3.30;;;11.80;99.90;;;;;;5028840;28;20041;-88
2023/03/24 04:04:42;;;;;;;5.97;3.60;;;11.80;99.90;;;;;;5018543;28;20029;-89
2023/03/24 04:07:21;;;;;;;5.20;2.70;;;11.70;99.90;;;;;;5002837;28;20037;-90
2023/03/24 04:10:17;;;;;;;7.55;2.40;;;11.60;99.90;;;;;;5031170;28;20041;-89
2023/03/24 04:12:58;;;;;;;5.60;2.50;;;11.60;99.90;;;;;;5003960;28;20432;-89
2023/03/24 04:16:04;;;;;;;4.60;2.40;;;11.40;99.90;;;;;;5021207;28;20099;-89
2023/03/24 04:19:01;;;;;;;6.35;2.33;;;11.30;99.90;;;;;;4980819;28;20081;-89
2023/03/24 04:21:37;;;;;;;6.32;1.95;;;11.30;99.90;;;;;;5016143;28;20056;-89
2023/03/24 04:24:25;;;;;;;5.80;1.73;;;11.20;99.90;;;;;;5032934;28;20459;-89
2023/03/24 04:27:01;;;;;;;4.95;1.92;;;11.10;99.90;;;;;;5021692;28;20057;-89
2023/03/24 04:29:54;;;;;;;6.82;2.10;;;11.10;99.90;;;;;;5005531;28;20044;-89
2023/03/24 04:32:59;;;;;;;7.75;2.20;;;11.00;99.90;;;;;;5031034;28;20044;-89
2023/03/24 04:35:30;;;;;;;7.88;2.20;;;10.90;99.90;;;;;;4991335;28;20053;-89
2023/03/24 04:38:02;;;;;;;7.18;1.95;;;10.80;99.90;;;;;;5004181;28;20118;-89
2023/03/24 04:40:31;;;;;;;6.05;1.80;;;10.80;99.90;;;;;;5004131;28;20120;-88
2023/03/24 04:43:02;;;;;;;8.23;2.80;;;10.80;99.90;;;;;;5003958;28;20557;-89
2023/03/24 04:45:32;;;;;;;5.93;1.83;;;10.70;99.90;;;;;;5018163;28;20402;-89
2023/03/24 04:48:01;;;;;;;7.25;2.08;;;10.70;99.90;;;;;;5002718;28;20490;-89
2023/03/24 04:50:39;;;;;;;6.63;2.20;;;10.70;99.90;;;;;;5000514;28;20063;-89
2023/03/24 04:53:07;;;;;;;6.13;2.00;;;10.60;99.90;;;;;;5039906;28;20026;-89
2023/03/24 04:55:56;;;;;;;6.03;2.00;;;10.60;99.90;;;;;;5023062;28;20069;-89
2023/03/24 04:58:22;;;;;;;6.32;1.90;;;10.50;99.90;;;;;;5001804;28;20528;-88
2023/03/24 05:00:49;;;;;;;7.78;2.22;;;10.50;99.90;;;;;;5032985;28;20041;-88
2023/03/24 05:03:16;;;;;;;11.13;2.17;;;10.50;99.90;;;;;;5005519;28;20483;-89
2023/03/24 05:05:45;;;;;;;6.68;2.03;;;10.40;99.90;;;;;;5000496;28;20072;-89
2023/03/24 05:08:15;;;;;;;10.05;2.30;;;10.40;99.90;;;;;;5005784;28;20041;-89
2023/03/24 05:10:41;;;;;;;6.60;2.00;;;10.40;99.90;;;;;;4999277;28;20053;-89
2023/03/24 05:13:13;;;;;;;7.68;2.60;;;10.50;99.90;;;;;;5001045;28;20184;-89
2023/03/24 05:15:39;;;;;;;9.80;2.75;;;10.40;99.90;;;;;;5024654;28;20059;-89
2023/03/24 05:18:05;;;;;;;11.00;2.20;;;10.40;99.90;;;;;;5003519;28;20230;-89
2023/03/24 05:20:31;;;;;;;10.50;2.78;;;10.40;99.90;;;;;;5001929;28;20397;-89
2023/03/24 05:22:58;;;;;;;8.70;2.85;;;10.30;99.90;;;;;;5021704;28;20373;-89
2023/03/24 05:25:24;;;;;;;9.65;2.97;;;10.40;99.90;;;;;;5022061;28;20049;-89
2023/03/24 05:27:49;;;;;;;12.02;3.35;;;10.30;99.90;;;;;;5017173;28;20042;-89
2023/03/24 05:30:16;;;;;;;10.27;3.00;;;10.30;99.90;;;;;;5021360;28;20305;-89
2023/03/24 05:32:41;;;;;;;11.40;2.75;;;10.40;99.90;;;;;;5003822;28;20403;-89
2023/03/24 05:35:10;;;;;;;8.38;3.20;;;10.30;99.90;;;;;;4999613;28;20354;-89
2023/03/24 05:37:36;;;;;;;9.00;3.10;;;10.40;99.90;;;;;;5002029;28;20049;-89
2023/03/24 05:40:02;;;;;;;10.50;2.97;;;10.40;99.90;;;;;;5000388;28;20411;-89
2023/03/24 05:42:27;;;;;;;11.32;3.90;;;10.40;99.90;;;;;;5003259;28;20059;-89
2023/03/24 05:44:53;;;;;;;12.80;3.22;;;10.40;99.90;;;;;;5003711;28;20037;-89
2023/03/24 05:47:22;;;;;;;15.50;4.00;;;10.40;99.90;;;;;;5017168;28;20045;-89
2023/03/24 05:49:47;;;;;;;12.73;2.97;;;10.30;99.90;;;;;;5001914;28;20060;-89
2023/03/24 05:52:15;;;;;;;11.45;3.22;;;10.30;99.90;;;;;;5002912;28;20038;-89
2023/03/24 05:54:41;;;;;;;9.18;3.42;;;10.30;99.90;;;;;;5009705;28;20044;-89
2023/03/24 05:57:14;;;;;;;8.73;2.50;;;10.30;99.90;;;;;;5018383;28;20156;-89
2023/03/24 05:59:51;;;;;;;9.90;2.60;;;10.30;99.90;;;;;;5019035;28;20045;-89
2023/03/24 06:02:20;;;;;;;7.70;2.72;;;10.30;99.90;;;;;;5002907;28;20038;-90
2023/03/24 06:04:47;;;;;;;12.70;3.33;;;10.20;99.90;;;;;;5003035;28;20329;-88
2023/03/24 06:07:14;;;;;;;15.57;3.05;;;10.20;99.90;;;;;;5023275;28;20077;-89
2023/03/24 06:09:45;;;;;;;12.57;2.92;;;10.20;99.90;;;;;;5006815;28;20041;-88
2023/03/24 06:12:12;;;;;;;11.23;2.53;;;10.20;99.90;;;;;;5019941;28;20152;-89
2023/03/24 06:14:37;;;;;;;10.35;2.80;;;10.20;99.90;;;;;;5002919;28;20051;-89
2023/03/24 06:17:13;;;;;;;11.48;3.03;;;10.10;99.90;;;;;;5014778;28;20041;-89
2023/03/24 06:19:48;;;;;;;12.70;3.30;;;10.20;99.90;;;;;;5014764;28;20048;-89
2023/03/24 06:22:18;;;;;;;16.63;4.00;;;10.20;99.90;;;;;;5021774;28;20047;-89
2023/03/24 06:24:45;;;;;;;8.98;3.25;;;10.20;99.90;;;;;;5002024;28;20040;-88
2023/03/24 06:27:13;;;;;;;13.93;3.33;;;10.20;99.90;;;;;;5006651;28;20041;-89
2023/03/24 06:29:41;;;;;;;13.00;3.40;;;10.20;99.90;;;;;;5001828;28;20485;-89
2023/03/24 06:32:10;;;;;;;15.18;3.42;;;10.20;99.90;;;;;;5002570;28;20048;-89
2023/03/24 06:34:37;;;;;;;10.15;3.08;;;10.20;99.90;;;;;;5000682;28;20120;-88
2023/03/24 06:37:04;;;;;;;15.57;3.13;;;10.20;99.90;;;;;;5000632;28;20090;-89
2023/03/24 06:39:30;;;;;;;14.50;3.45;;;10.20;99.90;;;;;;5005270;28;20060;-89
2023/03/24 06:41:56;;;;;;;14.05;2.63;;;10.30;99.90;;;;;;4999419;28;20076;-89
2023/03/24 06:44:21;;;;;;;16.52;3.33;;;10.20;99.90;;;;;;4998922;28;20459;-89
2023/03/24 06:46:48;;;;;;;13.43;3.63;;;10.30;99.90;;;;;;5004450;28;20033;-89
2023/03/24 06:49:13;;;;;;;12.23;3.08;;;10.30;99.90;;;;;;5002039;28;20467;-89
2023/03/24 06:51:39;;;;;;;11.23;2.75;;;10.30;99.90;;;;;;5015442;28;20373;-89
2023/03/24 06:54:05;;;;;;;12.60;2.75;;;10.40;99.90;;;;;;5018194;28;20048;-89
2023/03/24 06:56:31;;;;;;;10.60;2.83;;;10.40;99.90;;;;;;5014253;28;20033;-89
2023/03/24 06:58:56;;;;;;;16.02;2.72;;;10.40;99.90;;;;;;5016809;28;20037;-88
2023/03/24 07:01:25;;;;;;;11.45;2.88;;;10.40;99.90;;;;;;5005061;28;20128;-89
2023/03/24 07:03:53;;;;;;;18.30;2.90;;;10.40;99.90;;;;;;5003189;28;20079;-89
2023/03/24 07:06:19;;;;;;;12.55;2.65;;;10.40;99.90;;;;;;5037211;28;20061;-89
2023/03/24 07:08:45;;;;;;;9.85;2.58;;;10.40;99.90;;;;;;5027955;28;20136;-89
2023/03/24 07:11:11;;;;;;;12.90;3.05;;;10.40;99.90;;;;;;5028313;28;20076;-89
2023/03/24 07:13:37;;;;;;;14.63;3.30;;;10.40;99.90;;;;;;5020543;28;20085;-89
2023/03/24 07:16:03;;;;;;;12.23;3.90;;;10.50;99.90;;;;;;5003991;28;20559;-89
2023/03/24 07:18:28;;;;;;;10.27;3.10;;;10.40;99.90;;;;;;5003066;28;20037;-89
2023/03/24 07:20:55;;;;;;;10.95;2.65;;;10.50;99.90;;;;;;5019090;28;20037;-89
2023/03/24 07:23:21;;;;;;;21.80;3.22;;;10.40;99.90;;;;;;5022891;28;20077;-89
2023/03/24 07:25:46;;;;;;;12.77;3.78;;;10.40;99.90;;;;;;5022335;28;20350;-90
2023/03/24 07:28:12;;;;;;;16.02;3.78;;;10.40;99.90;;;;;;5022360;28;20382;-89
2023/03/24 07:30:38;;;;;;;14.25;3.40;;;10.50;99.90;;;;;;5023983;28;20065;-89
2023/03/24 07:33:09;;;;;;;10.63;3.15;;;10.50;99.90;;;;;;5004071;28;20045;-89
2023/03/24 07:35:35;;;;;;;15.73;3.42;;;10.60;99.90;;;;;;5001286;28;20536;-89
2023/03/24 07:38:01;;;;;;;17.60;3.38;;;10.50;99.90;;;;;;5020595;28;20075;-89
2023/03/24 07:40:29;;;;;;;13.25;3.50;;;10.50;99.90;;;;;;5004017;28;20506;-90
2023/03/24 07:42:54;;;;;;;15.30;3.78;;;10.50;99.90;;;;;;5028415;28;20034;-90
2023/03/24 07:45:23;;;;;;;11.70;3.28;;;10.60;99.90;;;;;;5020273;28;20063;-89
2023/03/24 07:47:49;;;;;;;15.40;3.40;;;10.60;99.90;;;;;;5004917;28;20048;-90
2023/03/24 07:50:17;;;;;;;19.70;4.68;;;10.60;99.90;;;;;;5019296;28;20310;-89
2023/03/24 07:52:46;;;;;;;14.75;3.33;;;10.60;99.90;;;;;;5005985;28;20481;-89
2023/03/24 07:55:15;;;;;;;16.52;3.42;;;10.60;99.90;;;;;;5021630;28;20041;-89
2023/03/24 07:57:49;;;;;;;14.80;3.22;;;10.60;99.90;;;;;;5004166;28;20076;-89
2023/03/24 08:00:20;;;;;;;20.80;4.05;;;10.70;99.90;;;;;;5004746;28;20068;-90
2023/03/24 08:02:51;;;;;;;19.52;4.43;;;10.80;99.90;;;;;;5020633;28;20279;-88
2023/03/24 08:05:18;;;;;;;19.33;3.42;;;10.80;99.90;;;;;;5003848;28;20186;-89
2023/03/24 08:07:52;;;;;;;16.38;3.30;;;10.80;99.90;;;;;;5022697;28;20088;-89
2023/03/24 08:10:20;;;;;;;14.48;3.50;;;10.80;99.90;;;;;;5038596;28;20518;-89
2023/03/24 08:12:46;;;;;;;18.63;3.15;;;10.90;99.90;;;;;;5001513;28;20041;-89
2023/03/24 08:15:13;;;;;;;14.18;3.40;;;10.90;99.90;;;;;;5007741;28;20090;-90
2023/03/24 08:17:39;;;;;;;14.65;2.85;;;10.80;99.90;;;;;;5006035;28;20332;-89
2023/03/24 08:20:16;;;;;;;14.07;3.63;;;11.00;99.90;;;;;;5002302;28;20033;-88
2023/03/24 08:22:43;;;;;;;18.40;4.18;;;11.20;99.90;;;;;;5008069;28;20056;-89
2023/03/24 08:25:11;;;;;;;17.55;3.17;;;11.40;99.90;;;;;;5021732;28;20048;-90
2023/03/24 08:27:45;;;;;;;15.70;2.92;;;11.40;99.90;;;;;;5019841;28;20054;-90
2023/03/24 08:30:15;;;;;;;20.88;3.90;;;11.20;99.90;;;;;;4999248;28;20037;-89
2023/03/24 08:32:50;;;;;;;13.98;3.05;;;11.10;99.90;;;;;;5002618;28;20462;-89
2023/03/24 08:35:20;;;;;;;15.23;3.40;;;11.40;99.90;;;;;;5020772;28;20057;-88
2023/03/24 08:37:55;;;;;;;19.83;3.55;;;11.40;99.90;;;;;;5020853;28;20041;-89
2023/03/24 08:40:23;;;;;;;16.13;3.13;;;11.50;99.90;;;;;;5027829;28;20047;-89
2023/03/24 08:42:51;;;;;;;18.90;3.97;;;11.40;99.90;;;;;;5009573;28;20048;-89
2023/03/24 08:45:19;;;;;;;15.27;3.05;;;11.40;99.90;;;;;;5002602;28;20124;-89
2023/03/24 08:47:50;;;;;;;14.30;3.42;;;11.40;99.90;;;;;;5004010;28;20552;-89
2023/03/24 08:50:23;;;;;;;16.20;3.63;;;11.40;99.90;;;;;;5001146;28;20085;-89
2023/03/24 08:52:49;;;;;;;17.30;3.70;;;11.20;99.90;;;;;;5002832;28;20045;-89
2023/03/24 08:55:16;;;;;;;17.17;3.30;;;11.20;99.90;;;;;;5004565;28;20064;-89
2023/03/24 08:57:42;;;;;;;16.08;4.10;;;11.40;99.90;;;;;;5020364;28;20522;-89
2023/03/24 09:00:15;;;;;;;16.92;3.20;;;11.20;99.90;;;;;;5018460;28;20038;-87
2023/03/24 09:02:52;;;;;;;14.15;3.25;;;11.40;99.90;;;;;;5003399;28;20041;-89
2023/03/24 09:05:19;;;;;;;19.13;4.38;;;11.70;99.90;;;;;;5028165;28;20047;-89
2023/03/24 09:07:46;;;;;;;19.92;3.80;;;11.90;99.90;;;;;;5006887;28;20029;-90
2023/03/24 09:10:14;;;;;;;9.95;2.97;;;12.20;99.90;;;;;;5001603;28;20131;-89
2023/03/24 09:12:40;;;;;;;17.50;3.90;;;12.00;99.90;;;;;;5002658;28;20215;-89
2023/03/24 09:15:07;;;;;;;15.80;3.45;;;12.30;99.90;;;;;;5018364;28;20041;-88
2023/03/24 09:17:34;;;;;;;18.88;4.45;;;12.20;99.90;;;;;;5005544;28;20045;-89
2023/03/24 09:20:06;;;;;;;10.32;3.22;;;12.30;99.90;;;;;;5018712;28;20451;-88
2023/03/24 09:22:35;;;;;;;14.73;3.78;;;12.70;99.90;;;;;;5002679;28;20302;-90
2023/03/24 09:25:01;;;;;;;15.55;3.53;;;12.50;99.90;;;;;;5006062;28;21045;-89
2023/03/24 09:27:27;;;;;;;17.15;3.97;;;12.10;99.90;;;;;;5003988;28;20049;-89
2023/03/24 09:29:53;;;;;;;17.00;3.53;;;11.90;99.90;;;;;;5018946;28;20118;-90
2023/03/24 09:32:18;;;;;;;14.15;2.95;;;11.60;99.90;;;;;;5017955;28;20030;-90
2023/03/24 09:34:44;;;;;;;15.00;3.22;;;11.50;99.90;;;;;;5000364;28;20246;-89
2023/03/24 09:37:10;;;;;;;12.55;3.28;;;11.40;99.90;;;;;;5040600;28;20045;-90
2023/03/24 09:39:35;;;;;;;13.77;3.20;;;11.10;99.90;;;;;;5028835;28;20114;-90
2023/03/24 09:42:04;;;;;;;15.10;3.22;;;11.00;99.90;;;;;;5003801;28;20184;-89
2023/03/24 09:44:46;;;;;;;11.90;3.20;;;10.90;99.90;;;;;;5004552;28;20141;-90
2023/03/24 09:47:26;;;;;;;13.43;3.38;;;10.80;99.90;;;;;;5021991;28;20041;-89
2023/03/24 09:49:55;;;;;;;15.85;2.95;;;11.00;99.90;;;;;;5018233;28;20069;-89
2023/03/24 09:52:41;;;;;;;12.90;3.13;;;11.50;99.90;;;;;;5027088;28;20041;-90
2023/03/24 09:55:15;;;;;;;13.63;3.40;;;11.60;99.90;;;;;;5003661;28;20207;-89
2023/03/24 09:57:46;;;;;;;12.60;3.22;;;11.70;99.90;;;;;;5018075;28;20221;-89
2023/03/24 10:00:26;;;;;;;15.88;3.22;;;12.10;99.90;;;;;;5017248;28;20041;-89
2023/03/24 10:02:59;;;;;;;12.25;3.10;;;12.10;99.90;;;;;;5005190;28;20115;-89
2023/03/24 10:06:06;;;;;;;11.10;2.95;;;12.30;99.90;;;;;;4998392;28;20108;-89
2023/03/24 10:08:39;;;;;;;15.45;4.20;;;12.40;99.90;;;;;;4992090;28;20530;-89
2023/03/24 10:11:22;;;;;;;15.32;3.28;;;12.60;99.90;;;;;;5021111;28;20244;-89
2023/03/24 10:14:20;;;;;;;15.63;3.55;;;12.80;99.90;;;;;;5021462;28;20056;-89
2023/03/24 10:17:00;;;;;;;14.73;2.75;;;12.70;99.90;;;;;;5017763;28;20034;-90
2023/03/24 10:19:37;;;;;;;13.15;3.03;;;13.00;99.90;;;;;;5000893;28;20042;-89
2023/03/24 10:22:26;;;;;;;14.63;3.40;;;12.90;99.90;;;;;;5000374;28;20042;-89
2023/03/24 10:25:04;;;;;;;21.73;3.85;;;13.00;99.90;;;;;;5017016;28;20084;-89
2023/03/24 10:27:35;;;;;;;19.08;3.22;;;13.20;99.90;;;;;;4999322;28;20041;-89
2023/03/24 10:30:19;;;;;;;13.90;2.90;;;13.40;99.90;;;;;;5015500;28;20041;-89
2023/03/24 10:32:45;;;;;;;14.73;3.35;;;13.20;99.90;;;;;;5002106;28;20068;-89
2023/03/24 10:35:23;;;;;;;14.02;3.25;;;13.40;99.90;;;;;;4996145;28;20092;-90
2023/03/24 10:37:50;;;;;;;13.63;3.53;;;13.80;99.90;;;;;;5016294;28;20037;-89
2023/03/24 10:40:25;;;;;;;16.90;3.92;;;13.70;99.90;;;;;;5002981;28;20129;-89
2023/03/24 10:42:51;;;;;;;15.57;3.40;;;13.60;99.90;;;;;;5046581;28;20038;-90
2023/03/24 10:45:32;;;;;;;16.33;3.80;;;13.70;99.90;;;;;;5003410;28;20056;-89
2023/03/24 10:48:00;;;;;;;17.65;3.35;;;13.50;99.90;;;;;;5017615;28;20044;-89
2023/03/24 10:50:28;;;;;;;15.15;4.05;;;12.90;99.90;;;;;;5028146;28;20124;-90
2023/03/24 10:52:54;;;;;;;11.68;3.05;;;12.60;99.90;;;;;;5020079;28;20722;-89
2023/03/24 10:55:23;;;;;;;15.30;3.22;;;12.30;99.90;;;;;;5005732;28;20044;-89
2023/03/24 10:58:00;;;;;;;14.55;3.60;;;12.20;99.90;;;;;;5039238;28;20100;-90
2023/03/24 11:00:31;;;;;;;14.45;3.10;;;12.70;99.90;;;;;;5027354;28;20034;-89
2023/03/24 11:03:04;;;;;;;12.82;3.00;;;13.10;99.90;;;;;;5018057;28;20180;-89
2023/03/24 11:05:33;;;;;;;12.30;3.05;;;13.20;99.90;;;;;;5003648;28;20120;-89
2023/03/24 11:08:21;;;;;;;8.05;2.90;;;12.70;99.90;;;;;;5005187;28;20123;-89
2023/03/24 11:10:49;;;;;;;16.15;3.20;;;12.50;99.90;;;;;;5029407;28;20056;-89
2023/03/24 11:13:33;;;;;;;15.80;3.60;;;12.30;99.90;;;;;;5017530;28;20176;-89
2023/03/24 11:16:13;;;;;;;14.38;2.88;;;12.20;99.90;;;;;;5001316;28;20502;-89
2023/03/24 11:18:57;;;;;;;18.35;3.30;;;12.20;99.90;;;;;;5026560;28;20056;-89
2023/03/24 11:21:25;;;;;;;8.90;2.33;;;12.30;99.90;;;;;;4999948;28;20494;-89
2023/03/24 11:23:50;;;;;;;13.07;2.95;;;12.40;99.90;;;;;;4998191;28;20129;-88
2023/03/24 11:26:29;;;;;;;14.02;3.13;;;13.00;99.90;;;;;;5016260;28;20128;-89
2023/03/24 11:29:03;;;;;;;13.10;2.58;;;13.50;99.90;;;;;;5004152;28;20061;-89
2023/03/24 11:31:37;;;;;;;14.05;3.20;;;13.80;99.90;;;;;;5014812;28;20037;-89
2023/03/24 11:34:18;;;;;;;12.63;3.07;;;14.00;99.90;;;;;;5002363;28;20056;-89
2023/03/24 11:36:59;;;;;;;9.85;3.05;;;14.00;99.90;;;;;;5001751;28;20061;-89
2023/03/24 11:39:36;;;;;;;14.23;2.65;;;14.20;99.90;;;;;;5006220;28;20540;-89
2023/03/24 11:42:11;;;;;;;8.60;2.75;;;14.20;48.10;;;;;;5043582;28;20045;-89
2023/03/24 11:44:36;;;;;;;11.68;2.35;;;14.30;99.90;;;;;;5000679;28;20463;-89
2023/03/24 11:47:12;;;;;;;6.65;2.00;;;14.20;99.90;;;;;;5003622;28;20067;-89
2023/03/24 11:49:45;;;;;;;11.55;2.35;;;14.30;99.90;;;;;;5002444;28;20546;-89
2023/03/24 11:52:30;;;;;;;10.45;2.40;;;14.30;33.00;;;;;;5003386;28;20048;-89
2023/03/24 11:54:56;;;;;;;9.35;2.92;;;14.50;1.00;;;;;;5022540;28;20045;-89
2023/03/24 11:57:50;;;;;;;12.70;2.33;;;14.30;99.90;;;;;;5003986;28;20033;-89
2023/03/24 12:00:34;;;;;;;8.85;2.60;;;14.50;99.90;;;;;;5032178;28;20061;-88
2023/03/24 12:03:32;;;;;;;11.93;2.70;;;14.40;99.90;;;;;;5004126;28;20040;-89
2023/03/24 12:06:03;;;;;;;8.90;2.42;;;14.20;99.90;;;;;;5003848;28;20116;-89
2023/03/24 12:08:43;;;;;;;9.38;2.65;;;14.40;99.90;;;;;;5022838;28;20044;-88
2023/03/24 12:11:17;;;;;;;10.57;2.70;;;14.50;99.90;;;;;;5023434;28;20140;-89
2023/03/24 12:13:49;;;;;;;9.27;2.55;;;14.30;1.00;;;;;;5019889;28;20122;-89
2023/03/24 12:16:30;;;;;;;11.20;2.60;;;14.30;1.00;;;;;;5008410;28;20064;-89
2023/03/24 12:19:01;;;;;;;14.52;3.65;;;13.70;99.90;;;;;;5018653;28;20037;-88
2023/03/24 12:21:39;;;;;;;12.40;3.30;;;13.50;99.90;;;;;;5020089;28;20131;-89
2023/03/24 12:24:19;;;;;;;16.85;2.80;;;13.70;1.00;;;;;;5024924;28;20118;-89
2023/03/24 12:26:50;;;;;;;14.02;2.55;;;13.60;99.90;;;;;;5021159;28;20843;-89
2023/03/24 12:29:25;;;;;;;13.88;2.92;;;13.70;99.90;;;;;;5018863;28;20065;-88
2023/03/24 12:31:58;;;;;;;14.98;3.72;;;13.60;99.90;;;;;;5046337;28;20034;-90
2023/03/24 12:34:41;;;;;;;12.95;2.80;;;13.80;99.90;;;;;;5002234;28;20033;-88
2023/03/24 12:37:10;;;;;;;11.25;2.70;;;13.70;99.90;;;;;;5015962;28;20260;-89
2023/03/24 12:39:54;;;;;;;13.60;2.92;;;14.00;1.00;;;;;;5020014;28;20033;-89
2023/03/24 12:42:23;;;;;;;15.10;3.22;;;13.90;99.90;;;;;;5024428;28;20077;-89
2023/03/24 12:45:08;;;;;;;10.40;2.55;;;13.70;1.00;;;;;;5019714;28;20041;-89
2023/03/24 12:47:38;;;;;;;14.95;2.85;;;13.30;99.90;;;;;;5001790;28;20091;-89
2023/03/24 12:50:41;;;;;;;11.60;2.83;;;13.00;1.00;;;;;;5035608;28;20553;-88
2023/03/24 12:53:26;;;;;;;9.32;2.30;;;13.60;99.90;;;;;;5022127;28;20085;-89
2023/03/24 12:56:10;;;;;;;11.07;2.55;;;13.50;99.90;;;;;;5005978;28;20122;-89
2023/03/24 12:59:02;;;;;;;12.57;2.60;;;13.20;99.90;;;;;;5019775;28;20107;-89
2023/03/24 13:01:44;;;;;;;8.32;2.17;;;13.70;68.80;;;;;;5003197;28;20048;-89
2023/03/24 13:04:31;;;;;;;12.68;2.50;;;14.20;99.90;;;;;;5020112;28;20525;-89
2023/03/24 13:07:13;;;;;;;10.77;2.88;;;13.90;99.90;;;;;;5002668;28;20091;-89
2023/03/24 13:10:05;;;;;;;9.88;2.17;;;13.90;99.90;;;;;;5021180;28;20129;-88